Time;durP1;ratioP1;P1;durP2;ratioP2;P2;SDS_P1;SDS_P2;PMS_P1;PMS_P2;Temp;Humidity;BMP_temperature;BMP_pressure;BME280_temperature;BME280_humidity;BME280_pressure;Samples;Min_cycle;Max_cycle;Signal;HPM_P1;HPM_P2
2023/03/02 00:01:53;;;;;;;32.97;22.02;;;4.90;85.10;;;;;;5033016;28;20405;-79
2023/03/02 00:04:23;;;;;;;33.25;21.65;;;4.80;86.20;;;;;;5032897;28;20513;-79
2023/03/02 00:06:52;;;;;;;31.98;21.63;;;4.70;87.30;;;;;;5033246;28;20029;-78
2023/03/02 00:09:18;;;;;;;43.35;25.52;;;4.90;90.00;;;;;;5032971;28;20031;-80
2023/03/02 00:11:44;;;;;;;36.42;24.45;;;5.10;89.90;;;;;;5015457;28;20025;-80
2023/03/02 00:14:10;;;;;;;38.55;25.85;;;5.10;90.10;;;;;;4983126;28;20042;-80
2023/03/02 00:16:35;;;;;;;41.97;27.23;;;5.00;91.20;;;;;;5015374;28;20029;-80
2023/03/02 00:19:01;;;;;;;45.10;29.85;;;4.90;91.70;;;;;;4995133;28;20111;-80
2023/03/02 00:21:27;;;;;;;48.05;31.20;;;4.70;93.00;;;;;;4995391;28;20037;-80
2023/03/02 00:23:53;;;;;;;43.17;27.33;;;4.50;94.40;;;;;;4995868;28;20045;-80
2023/03/02 00:26:19;;;;;;;43.75;27.90;;;4.30;96.10;;;;;;5012065;28;20030;-80
2023/03/02 00:28:45;;;;;;;48.60;30.13;;;4.40;98.20;;;;;;5013236;28;20467;-80
2023/03/02 00:31:10;;;;;;;54.33;34.47;;;4.70;98.20;;;;;;5011992;28;20049;-80
2023/03/02 00:33:36;;;;;;;55.75;33.35;;;4.80;97.60;;;;;;5011887;28;20115;-80
2023/03/02 00:36:02;;;;;;;58.65;34.90;;;4.60;98.40;;;;;;5012019;28;20053;-80
2023/03/02 00:38:28;;;;;;;60.33;34.65;;;4.40;99.30;;;;;;5013218;28;20030;-80
2023/03/02 00:40:55;;;;;;;61.70;35.40;;;4.40;99.90;;;;;;5012728;28;20034;-80
2023/03/02 00:43:26;;;;;;;58.45;35.60;;;4.30;99.90;;;;;;5011267;28;20042;-80
2023/03/02 00:45:52;;;;;;;49.67;31.70;;;4.30;99.90;;;;;;5012029;28;20088;-80
2023/03/02 00:48:18;;;;;;;56.95;34.30;;;4.40;99.90;;;;;;5011838;28;20030;-80
2023/03/02 00:50:43;;;;;;;61.55;37.05;;;4.60;99.90;;;;;;4995033;28;20048;-80
2023/03/02 00:53:09;;;;;;;53.10;32.50;;;4.60;99.90;;;;;;5012252;28;20025;-79
2023/03/02 00:55:36;;;;;;;59.70;36.72;;;4.60;99.90;;;;;;5011651;28;20038;-80
2023/03/02 00:58:03;;;;;;;64.47;37.70;;;4.70;99.90;;;;;;4995560;28;20026;-80
2023/03/02 01:00:29;;;;;;;60.33;35.60;;;4.50;99.90;;;;;;5012968;28;20034;-80
2023/03/02 01:02:55;;;;;;;67.55;36.40;;;4.40;99.90;;;;;;5011664;28;20030;-80
2023/03/02 01:05:21;;;;;;;60.13;35.90;;;4.40;99.90;;;;;;5013101;28;20060;-81
2023/03/02 01:07:47;;;;;;;63.83;37.75;;;4.60;99.90;;;;;;4995641;28;20069;-81
2023/03/02 01:10:13;;;;;;;57.72;34.83;;;4.50;99.90;;;;;;5011526;28;20034;-81
2023/03/02 01:12:39;;;;;;;63.80;37.58;;;4.40;99.90;;;;;;4995419;28;20515;-81
2023/03/02 01:15:06;;;;;;;56.03;34.13;;;4.50;99.90;;;;;;5011442;28;20116;-81
2023/03/02 01:17:34;;;;;;;60.90;34.65;;;4.50;99.90;;;;;;5011606;28;20037;-80
2023/03/02 01:20:00;;;;;;;53.53;30.52;;;4.50;99.90;;;;;;5014929;28;20042;-80
2023/03/02 01:22:26;;;;;;;60.22;36.20;;;4.60;99.90;;;;;;4998560;28;20026;-81
2023/03/02 01:24:52;;;;;;;59.92;34.53;;;4.70;99.90;;;;;;4999081;28;20374;-81
2023/03/02 01:27:18;;;;;;;53.30;31.15;;;4.80;99.90;;;;;;5014782;28;20033;-81
2023/03/02 01:29:44;;;;;;;52.70;31.92;;;5.00;99.90;;;;;;5032478;28;20033;-81
2023/03/02 01:32:10;;;;;;;56.90;34.58;;;5.20;99.90;;;;;;5014771;28;20116;-80
2023/03/02 01:34:36;;;;;;;54.90;33.35;;;5.30;99.90;;;;;;5014600;28;20509;-80
2023/03/02 01:37:02;;;;;;;53.38;31.73;;;5.20;99.90;;;;;;5014838;28;20048;-80
2023/03/02 01:39:27;;;;;;;56.05;34.22;;;5.30;99.90;;;;;;4997935;28;20048;-80
2023/03/02 01:41:53;;;;;;;52.10;32.15;;;5.30;99.90;;;;;;5014856;28;20112;-79
2023/03/02 01:44:38;;;;;;;52.55;31.90;;;5.30;99.90;;;;;;5014641;28;20125;-79
2023/03/02 01:47:12;;;;;;;55.63;33.53;;;5.30;99.90;;;;;;5031957;28;20497;-79
2023/03/02 01:49:46;;;;;;;52.08;30.90;;;5.30;99.90;;;;;;5032397;28;20033;-79
2023/03/02 01:52:14;;;;;;;47.53;29.65;;;5.40;99.80;;;;;;5032520;28;20405;-79
2023/03/02 01:54:41;;;;;;;58.80;35.60;;;5.40;99.90;;;;;;5017316;28;20097;-79
2023/03/02 01:57:07;;;;;;;53.20;32.90;;;5.30;99.50;;;;;;5017831;28;20421;-80
2023/03/02 01:59:36;;;;;;;56.35;34.13;;;5.00;99.90;;;;;;5018361;28;20223;-79
2023/03/02 02:02:08;;;;;;;61.65;36.30;;;4.90;99.90;;;;;;5017884;28;20164;-80
2023/03/02 02:04:36;;;;;;;55.33;32.47;;;4.80;99.90;;;;;;5017785;28;20117;-80
2023/03/02 02:07:04;;;;;;;58.15;34.38;;;4.70;99.90;;;;;;5017991;28;20026;-80
2023/03/02 02:09:35;;;;;;;57.17;33.78;;;4.70;99.90;;;;;;5034935;28;20268;-80
2023/03/02 02:12:01;;;;;;;56.83;33.05;;;4.70;99.90;;;;;;5017936;28;20489;-81
2023/03/02 02:14:27;;;;;;;55.75;32.83;;;4.60;99.90;;;;;;5017340;28;20036;-81
2023/03/02 02:16:52;;;;;;;51.20;30.58;;;4.60;99.90;;;;;;5017815;28;20038;-81
2023/03/02 02:19:24;;;;;;;52.30;31.25;;;4.70;99.90;;;;;;5000979;28;20049;-81
2023/03/02 02:21:50;;;;;;;50.42;30.10;;;4.80;99.90;;;;;;5035072;28;20026;-81
2023/03/02 02:24:39;;;;;;;43.70;27.02;;;4.80;99.90;;;;;;5017707;28;20041;-81
2023/03/02 02:27:04;;;;;;;49.47;28.33;;;4.70;99.70;;;;;;5017343;28;20106;-81
2023/03/02 02:29:34;;;;;;;47.85;27.67;;;4.80;99.70;;;;;;4985080;28;20466;-81
2023/03/02 02:32:29;;;;;;;42.65;26.60;;;4.90;99.60;;;;;;5017116;28;20069;-81
2023/03/02 02:35:11;;;;;;;49.30;27.90;;;4.90;99.60;;;;;;5017571;28;20033;-81
2023/03/02 02:37:51;;;;;;;47.63;27.90;;;5.00;99.00;;;;;;5035198;28;20040;-81
2023/03/02 02:40:37;;;;;;;52.05;28.38;;;4.80;98.60;;;;;;5017116;28;20037;-81
2023/03/02 02:43:04;;;;;;;45.58;26.45;;;4.60;98.60;;;;;;5035433;28;20032;-80
2023/03/02 02:45:29;;;;;;;44.33;26.13;;;4.40;98.70;;;;;;5017792;28;20474;-80
2023/03/02 02:47:56;;;;;;;43.30;24.45;;;4.20;98.80;;;;;;5017731;28;20056;-80
2023/03/02 02:50:26;;;;;;;42.75;24.42;;;4.10;99.00;;;;;;5035414;28;20090;-80
2023/03/02 02:53:04;;;;;;;39.97;23.92;;;4.30;99.10;;;;;;5017505;28;20112;-80
2023/03/02 02:55:31;;;;;;;49.15;26.83;;;4.30;98.70;;;;;;5017403;28;20355;-80
2023/03/02 02:57:59;;;;;;;46.88;26.17;;;4.20;98.90;;;;;;5017373;28;20021;-80
2023/03/02 03:00:26;;;;;;;46.92;28.25;;;4.10;99.40;;;;;;5017382;28;20438;-80
2023/03/02 03:03:27;;;;;;;50.95;29.10;;;4.10;99.80;;;;;;5035017;28;20112;-80
2023/03/02 03:05:53;;;;;;;56.05;30.98;;;4.00;99.90;;;;;;5034860;28;20108;-80
2023/03/02 03:08:44;;;;;;;55.22;30.98;;;3.90;99.90;;;;;;5001053;28;20034;-80
2023/03/02 03:11:13;;;;;;;56.42;31.70;;;3.90;99.90;;;;;;5016562;28;20033;-80
2023/03/02 03:13:41;;;;;;;56.67;30.27;;;3.90;99.90;;;;;;5034442;28;20025;-80
2023/03/02 03:16:11;;;;;;;54.10;30.65;;;3.70;99.90;;;;;;5017246;28;20029;-80
2023/03/02 03:18:37;;;;;;;52.20;29.75;;;3.70;99.90;;;;;;5034367;28;20049;-80
2023/03/02 03:21:03;;;;;;;59.85;32.58;;;3.70;99.90;;;;;;5016846;28;20048;-80
2023/03/02 03:23:29;;;;;;;55.90;31.13;;;3.70;99.90;;;;;;5000489;28;20032;-80
2023/03/02 03:25:55;;;;;;;52.97;29.58;;;3.50;99.90;;;;;;5016770;28;20541;-80
2023/03/02 03:28:21;;;;;;;60.75;31.67;;;3.50;99.90;;;;;;5016849;28;20117;-80
2023/03/02 03:30:46;;;;;;;56.50;31.55;;;3.80;99.90;;;;;;5016793;28;20073;-80
2023/03/02 03:33:12;;;;;;;51.78;30.38;;;3.70;99.90;;;;;;5034123;28;20033;-79
2023/03/02 03:35:38;;;;;;;52.50;30.40;;;3.60;99.90;;;;;;5000229;28;20033;-80
2023/03/02 03:38:06;;;;;;;56.70;31.73;;;3.50;99.90;;;;;;5034318;28;20087;-80
2023/03/02 03:40:35;;;;;;;52.25;28.83;;;3.30;99.90;;;;;;5033935;28;20076;-80
2023/03/02 03:43:01;;;;;;;56.47;31.52;;;3.40;99.90;;;;;;5016559;28;20039;-80
2023/03/02 03:45:27;;;;;;;58.92;32.20;;;3.50;99.90;;;;;;5016379;28;20029;-80
2023/03/02 03:47:52;;;;;;;59.72;31.08;;;3.40;99.90;;;;;;5016832;28;20065;-80
2023/03/02 03:50:18;;;;;;;61.10;30.52;;;3.30;99.90;;;;;;5016313;28;20080;-79
2023/03/02 03:52:44;;;;;;;60.13;32.45;;;3.10;99.90;;;;;;5034020;28;20484;-80
2023/03/02 03:55:11;;;;;;;59.95;30.50;;;3.00;99.90;;;;;;5016004;28;20452;-80
2023/03/02 03:57:37;;;;;;;62.72;32.28;;;3.00;99.90;;;;;;5033985;28;20053;-79
2023/03/02 04:00:06;;;;;;;56.13;29.77;;;3.10;99.90;;;;;;5016133;28;20033;-80
2023/03/02 04:02:33;;;;;;;60.10;30.48;;;3.10;99.90;;;;;;5015903;28;20474;-79
2023/03/02 04:05:05;;;;;;;59.05;30.70;;;3.00;99.90;;;;;;5034063;28;20026;-79
2023/03/02 04:07:35;;;;;;;56.45;31.23;;;2.90;99.90;;;;;;5016932;28;20605;-80
2023/03/02 04:10:04;;;;;;;52.35;28.90;;;2.90;99.90;;;;;;5015585;28;20037;-80
2023/03/02 04:12:35;;;;;;;60.80;30.50;;;3.00;99.90;;;;;;5033319;28;20120;-80
2023/03/02 04:15:01;;;;;;;60.88;30.20;;;3.20;99.90;;;;;;5033114;28;20037;-79
2023/03/02 04:17:27;;;;;;;60.10;30.73;;;3.10;99.90;;;;;;5015320;28;20030;-79
2023/03/02 04:19:54;;;;;;;61.55;30.55;;;3.00;99.90;;;;;;5033721;28;20141;-79
2023/03/02 04:22:19;;;;;;;59.17;30.42;;;3.00;99.90;;;;;;5016049;28;20030;-79
2023/03/02 04:24:47;;;;;;;56.65;29.13;;;3.00;99.90;;;;;;5033486;28;20029;-79
2023/03/02 04:27:13;;;;;;;58.22;30.38;;;3.00;99.90;;;;;;5015549;28;20355;-79
2023/03/02 04:29:39;;;;;;;62.30;31.45;;;3.00;99.90;;;;;;5033657;28;20061;-79
2023/03/02 04:32:06;;;;;;;55.50;29.20;;;3.00;99.90;;;;;;4998980;28;20033;-80
2023/03/02 04:34:32;;;;;;;59.58;29.60;;;3.00;99.90;;;;;;4999329;28;20025;-79
2023/03/02 04:36:58;;;;;;;56.50;29.83;;;3.10;99.90;;;;;;5015679;28;20530;-79
2023/03/02 04:39:24;;;;;;;57.38;30.17;;;3.10;99.90;;;;;;5015078;28;20108;-80
2023/03/02 04:41:50;;;;;;;59.92;30.23;;;3.20;99.90;;;;;;5033003;28;20124;-80
2023/03/02 04:44:17;;;;;;;53.08;28.80;;;3.30;99.90;;;;;;5033305;28;20458;-79
2023/03/02 04:46:44;;;;;;;56.33;28.75;;;3.10;99.90;;;;;;4999085;28;20441;-79
2023/03/02 04:49:09;;;;;;;53.28;28.40;;;3.20;99.90;;;;;;5032516;28;20117;-79
2023/03/02 04:51:41;;;;;;;53.30;27.13;;;3.30;99.90;;;;;;5015105;28;20125;-79
2023/03/02 04:54:19;;;;;;;54.47;27.48;;;3.20;99.90;;;;;;5032767;28;20108;-79
2023/03/02 04:56:50;;;;;;;55.15;29.40;;;3.10;99.90;;;;;;5032732;28;20047;-80
2023/03/02 04:59:21;;;;;;;52.17;26.98;;;3.10;99.90;;;;;;5032981;28;20037;-79
2023/03/02 05:01:47;;;;;;;53.08;26.13;;;3.00;99.90;;;;;;5014997;28;20061;-79
2023/03/02 05:04:13;;;;;;;52.08;27.63;;;3.00;99.90;;;;;;5015038;28;20057;-80
2023/03/02 05:06:39;;;;;;;55.42;27.05;;;2.90;99.90;;;;;;5032877;28;20474;-80
2023/03/02 05:09:05;;;;;;;54.53;28.10;;;2.90;99.90;;;;;;5032439;28;20057;-81
2023/03/02 05:11:31;;;;;;;50.20;26.35;;;2.90;99.90;;;;;;5014809;28;20072;-80
2023/03/02 05:14:00;;;;;;;49.90;25.38;;;2.90;99.90;;;;;;5032856;28;20508;-79
2023/03/02 05:16:28;;;;;;;53.53;26.92;;;2.90;99.90;;;;;;5032879;28;20101;-80
2023/03/02 05:18:54;;;;;;;49.28;25.20;;;3.00;99.90;;;;;;5014598;28;20133;-80
2023/03/02 05:21:20;;;;;;;50.55;26.35;;;3.00;99.90;;;;;;4998538;28;20038;-79
2023/03/02 05:23:46;;;;;;;44.83;24.42;;;3.10;99.90;;;;;;5015009;28;20037;-79
2023/03/02 05:26:13;;;;;;;47.38;23.30;;;3.10;99.90;;;;;;5014750;28;20075;-80
2023/03/02 05:28:39;;;;;;;46.13;24.40;;;3.20;99.90;;;;;;5015600;28;20458;-79
2023/03/02 05:31:06;;;;;;;44.33;23.85;;;3.40;99.90;;;;;;5002224;28;20091;-79
2023/03/02 05:33:32;;;;;;;49.28;24.70;;;3.40;99.90;;;;;;5018578;28;20029;-79
2023/03/02 05:35:57;;;;;;;41.85;23.17;;;3.40;99.90;;;;;;5018493;28;20040;-79
2023/03/02 05:38:23;;;;;;;45.03;23.85;;;3.40;99.90;;;;;;5001972;28;20105;-79
2023/03/02 05:40:49;;;;;;;48.50;25.63;;;3.40;99.90;;;;;;5001721;28;20037;-79
2023/03/02 05:43:18;;;;;;;53.10;26.77;;;3.50;99.90;;;;;;5018274;28;20073;-79
2023/03/02 05:45:44;;;;;;;52.17;26.90;;;3.60;99.90;;;;;;5018192;28;20045;-79
2023/03/02 05:48:12;;;;;;;50.75;26.40;;;3.50;99.90;;;;;;5018178;28;20029;-80
2023/03/02 05:50:39;;;;;;;48.58;26.48;;;3.20;99.90;;;;;;5018133;28;20128;-79
2023/03/02 05:53:04;;;;;;;53.45;26.80;;;3.20;99.90;;;;;;5017601;28;20032;-79
2023/03/02 05:55:35;;;;;;;52.70;26.80;;;3.30;99.90;;;;;;5017951;28;20037;-80
2023/03/02 05:58:05;;;;;;;53.28;26.55;;;3.20;99.90;;;;;;5035954;28;20108;-80
2023/03/02 06:00:31;;;;;;;49.17;26.15;;;3.20;99.90;;;;;;5035872;28;20033;-79
2023/03/02 06:02:57;;;;;;;52.60;26.35;;;3.20;99.90;;;;;;5017770;28;20477;-80
2023/03/02 06:05:23;;;;;;;50.78;24.05;;;3.20;99.90;;;;;;5018135;28;20030;-79
2023/03/02 06:07:49;;;;;;;47.17;25.23;;;3.30;99.90;;;;;;5001681;28;20083;-80
2023/03/02 06:10:15;;;;;;;50.72;26.10;;;3.40;99.90;;;;;;5017362;28;20065;-80
2023/03/02 06:12:41;;;;;;;53.85;26.48;;;3.30;99.90;;;;;;5001026;28;20029;-79
2023/03/02 06:15:08;;;;;;;49.80;25.83;;;3.30;99.90;;;;;;5001438;28;20033;-79
2023/03/02 06:17:34;;;;;;;50.08;26.90;;;3.10;99.90;;;;;;5017885;28;20026;-80
2023/03/02 06:20:00;;;;;;;48.42;24.73;;;3.00;99.90;;;;;;5020179;28;20199;-82
2023/03/02 06:22:26;;;;;;;46.97;25.00;;;3.10;99.90;;;;;;5040540;28;20038;-82
2023/03/02 06:24:54;;;;;;;42.42;23.73;;;3.20;99.90;;;;;;5039652;28;20448;-84
2023/03/02 06:27:20;;;;;;;48.03;25.52;;;3.30;99.90;;;;;;5004672;28;20530;-83
2023/03/02 06:29:45;;;;;;;46.95;24.52;;;3.40;99.90;;;;;;5037627;28;20109;-83
2023/03/02 06:32:11;;;;;;;42.95;21.73;;;3.40;99.90;;;;;;5004213;28;20076;-83
2023/03/02 06:34:37;;;;;;;48.05;25.05;;;3.50;99.90;;;;;;5006934;28;20470;-82
2023/03/02 06:37:02;;;;;;;45.20;23.38;;;3.50;99.90;;;;;;5018319;28;20038;-82
2023/03/02 06:39:29;;;;;;;56.55;27.65;;;3.50;99.90;;;;;;5001116;28;20470;-82
2023/03/02 06:41:54;;;;;;;50.38;23.75;;;3.60;99.90;;;;;;5018406;28;20040;-83
2023/03/02 06:44:20;;;;;;;46.38;24.38;;;3.70;99.90;;;;;;5018201;28;20034;-83
2023/03/02 06:46:46;;;;;;;38.88;21.70;;;3.70;99.50;;;;;;5018146;28;20079;-83
2023/03/02 06:49:12;;;;;;;48.40;24.63;;;3.70;99.10;;;;;;5018767;28;20088;-83
2023/03/02 06:51:37;;;;;;;54.75;27.70;;;3.60;98.90;;;;;;5001917;28;20049;-83
2023/03/02 06:54:05;;;;;;;46.20;23.98;;;3.60;99.90;;;;;;5002105;28;20043;-83
2023/03/02 06:56:31;;;;;;;50.22;25.00;;;3.50;99.50;;;;;;5002597;28;20033;-82
2023/03/02 06:58:57;;;;;;;48.20;24.58;;;3.40;99.50;;;;;;5019993;28;20038;-81
2023/03/02 07:01:22;;;;;;;43.90;23.67;;;3.40;99.90;;;;;;5037974;28;20025;-80
2023/03/02 07:03:48;;;;;;;55.72;26.92;;;3.30;99.70;;;;;;5002753;28;20475;-78
2023/03/02 07:06:16;;;;;;;46.08;23.55;;;3.10;99.80;;;;;;5034909;28;20030;-77
2023/03/02 07:08:41;;;;;;;46.05;23.77;;;3.00;99.90;;;;;;5034525;28;20029;-77
2023/03/02 07:11:09;;;;;;;52.00;25.83;;;3.10;99.90;;;;;;5016495;28;20539;-78
2023/03/02 07:13:39;;;;;;;47.05;22.92;;;3.10;99.90;;;;;;5000736;28;20374;-78
2023/03/02 07:16:16;;;;;;;50.30;24.67;;;3.20;99.90;;;;;;5016991;28;20096;-78
2023/03/02 07:18:41;;;;;;;46.55;23.58;;;3.20;99.90;;;;;;5016763;28;20375;-80
2023/03/02 07:21:07;;;;;;;48.63;24.05;;;3.30;99.90;;;;;;5000404;28;20040;-82
2023/03/02 07:23:33;;;;;;;51.00;24.75;;;3.40;99.90;;;;;;5020784;28;20044;-82
2023/03/02 07:25:59;;;;;;;43.72;22.05;;;3.40;99.80;;;;;;5018166;28;20093;-82
2023/03/02 07:28:25;;;;;;;51.25;23.55;;;3.40;99.90;;;;;;5018568;28;20064;-83
2023/03/02 07:30:52;;;;;;;46.97;23.38;;;3.20;99.70;;;;;;5011777;28;20072;-80
2023/03/02 07:33:18;;;;;;;51.00;23.15;;;3.30;99.90;;;;;;4990603;28;20035;-83
2023/03/02 07:35:43;;;;;;;46.20;21.52;;;3.30;99.90;;;;;;5036574;28;20033;-84
2023/03/02 07:38:09;;;;;;;45.38;21.00;;;3.50;99.90;;;;;;4986495;28;20026;-85
2023/03/02 07:40:38;;;;;;;47.13;21.17;;;3.50;99.60;;;;;;5035326;28;20037;-84
2023/03/02 07:43:04;;;;;;;39.53;19.05;;;3.60;99.90;;;;;;5028139;28;20021;-85
2023/03/02 07:45:29;;;;;;;42.75;20.55;;;3.80;99.60;;;;;;5023431;28;20109;-85
2023/03/02 07:47:55;;;;;;;36.92;18.35;;;4.10;99.10;;;;;;5026066;28;20095;-85
2023/03/02 07:50:21;;;;;;;35.75;18.70;;;4.30;98.90;;;;;;5025242;28;20092;-85
2023/03/02 07:52:46;;;;;;;36.88;18.50;;;4.50;97.50;;;;;;5021209;28;20489;-85
2023/03/02 07:55:12;;;;;;;36.78;18.58;;;4.50;96.80;;;;;;5019846;28;20039;-79
2023/03/02 07:57:38;;;;;;;43.25;20.67;;;4.40;96.70;;;;;;5019645;28;20029;-79
2023/03/02 08:00:04;;;;;;;43.67;21.70;;;4.30;97.20;;;;;;5018725;28;20033;-80
2023/03/02 08:02:30;;;;;;;44.22;21.67;;;4.20;97.80;;;;;;5007571;28;20040;-82
2023/03/02 08:04:55;;;;;;;42.25;21.63;;;3.90;98.40;;;;;;5000712;28;20025;-83
2023/03/02 08:07:21;;;;;;;39.88;20.48;;;4.00;99.10;;;;;;5038205;28;20508;-84
2023/03/02 08:09:47;;;;;;;37.42;20.20;;;3.90;98.80;;;;;;5016455;28;20495;-84
2023/03/02 08:12:12;;;;;;;41.30;21.33;;;3.80;99.10;;;;;;5013488;28;20053;-84
2023/03/02 08:14:38;;;;;;;37.67;18.42;;;4.00;99.30;;;;;;5041824;28;20034;-80
2023/03/02 08:17:05;;;;;;;39.50;20.05;;;4.30;99.20;;;;;;5027871;28;20033;-81
2023/03/02 08:19:31;;;;;;;39.22;18.95;;;4.40;98.30;;;;;;5033604;28;20132;-81
2023/03/02 08:21:57;;;;;;;36.75;18.00;;;4.30;98.20;;;;;;5031227;28;20105;-82
2023/03/02 08:24:23;;;;;;;33.78;17.25;;;4.50;98.50;;;;;;5016592;28;20121;-84
2023/03/02 08:26:49;;;;;;;32.60;16.00;;;4.50;98.10;;;;;;5016443;28;20033;-85
2023/03/02 08:29:14;;;;;;;34.03;17.35;;;4.70;97.50;;;;;;5034664;28;20351;-84
2023/03/02 08:31:40;;;;;;;35.17;18.20;;;4.80;97.10;;;;;;5024482;28;20072;-85
2023/03/02 08:34:05;;;;;;;34.28;17.40;;;4.70;96.70;;;;;;5034147;28;20470;-84
2023/03/02 08:36:31;;;;;;;38.00;18.42;;;4.60;97.10;;;;;;5023481;28;20422;-85
2023/03/02 08:38:57;;;;;;;35.97;17.08;;;4.60;97.30;;;;;;5021070;28;20470;-83
2023/03/02 08:41:23;;;;;;;33.85;16.38;;;4.60;97.50;;;;;;5006216;28;20029;-84
2023/03/02 08:43:58;;;;;;;35.75;16.52;;;4.80;97.70;;;;;;5032070;28;20072;-85
2023/03/02 08:46:24;;;;;;;36.58;17.67;;;5.00;97.00;;;;;;4994105;28;20367;-83
2023/03/02 08:48:52;;;;;;;32.13;15.75;;;5.20;96.50;;;;;;5000934;28;20037;-83
2023/03/02 08:51:21;;;;;;;31.70;16.10;;;5.40;96.60;;;;;;4999481;28;20037;-82
2023/03/02 08:53:49;;;;;;;32.58;16.42;;;5.60;96.30;;;;;;5014784;28;20393;-83
2023/03/02 08:56:27;;;;;;;34.00;17.67;;;5.90;96.60;;;;;;5014869;28;20021;-76
2023/03/02 08:58:55;;;;;;;31.40;17.13;;;6.00;95.90;;;;;;5014357;28;20080;-82
2023/03/02 09:01:30;;;;;;;35.53;17.10;;;6.20;94.90;;;;;;5014815;28;20041;-77
2023/03/02 09:03:58;;;;;;;33.50;17.15;;;6.20;94.40;;;;;;5035574;28;20790;-81
2023/03/02 09:06:24;;;;;;;32.97;17.63;;;6.40;94.40;;;;;;5035201;28;20036;-83
2023/03/02 09:08:50;;;;;;;34.58;17.23;;;6.50;94.10;;;;;;5034340;28;20291;-80
2023/03/02 09:11:16;;;;;;;29.15;15.48;;;6.50;93.10;;;;;;5000469;28;20417;-80
2023/03/02 09:13:42;;;;;;;35.85;17.73;;;6.50;93.20;;;;;;5031144;28;20026;-80
2023/03/02 09:16:08;;;;;;;32.88;17.20;;;6.60;93.00;;;;;;5017860;28;20033;-80
2023/03/02 09:18:35;;;;;;;35.85;18.13;;;6.60;93.00;;;;;;5035101;28;20061;-81
2023/03/02 09:21:02;;;;;;;33.17;17.70;;;6.60;93.20;;;;;;5018602;28;20041;-80
2023/03/02 09:23:29;;;;;;;31.85;17.30;;;6.50;92.90;;;;;;5014342;28;20042;-81
2023/03/02 09:25:55;;;;;;;31.95;16.75;;;6.40;93.30;;;;;;5003845;28;20446;-82
2023/03/02 09:28:21;;;;;;;37.78;18.33;;;6.50;93.70;;;;;;5001893;28;20109;-81
2023/03/02 09:30:49;;;;;;;29.02;15.63;;;6.50;92.90;;;;;;5033989;28;20037;-81
2023/03/02 09:33:15;;;;;;;32.30;17.02;;;6.60;93.20;;;;;;5036268;28;20029;-82
2023/03/02 09:35:40;;;;;;;35.35;18.55;;;6.60;92.70;;;;;;5010962;28;20060;-82
2023/03/02 09:38:06;;;;;;;32.63;18.17;;;6.50;93.10;;;;;;5011623;28;20037;-80
2023/03/02 09:40:35;;;;;;;34.28;17.90;;;6.40;93.30;;;;;;5021328;28;20348;-81
2023/03/02 09:43:29;;;;;;;34.78;18.83;;;6.50;93.40;;;;;;5036096;28;20037;-81
2023/03/02 09:45:58;;;;;;;35.17;18.63;;;6.50;93.70;;;;;;5035621;28;20025;-83
2023/03/02 09:48:58;;;;;;;37.33;19.27;;;6.60;93.70;;;;;;5038424;28;20088;-83
2023/03/02 09:51:34;;;;;;;33.97;17.60;;;6.60;93.80;;;;;;5037362;28;20487;-83
2023/03/02 09:54:15;;;;;;;33.05;17.00;;;6.90;94.00;;;;;;5019666;28;20061;-81
2023/03/02 09:56:58;;;;;;;34.90;17.00;;;7.00;92.90;;;;;;5018755;28;20541;-81
2023/03/02 09:59:24;;;;;;;;;;;7.10;92.80;;;;;;5033743;28;20033;-78
2023/03/02 10:02:21;;;;;;;27.65;15.45;;;7.30;92.00;;;;;;5034435;28;19947;-77
2023/03/02 10:04:50;;;;;;;27.70;14.20;;;7.30;91.80;;;;;;5018388;28;20033;-77
2023/03/02 10:07:23;;;;;;;26.65;14.80;;;7.40;91.20;;;;;;5002637;28;20022;-77
2023/03/02 10:09:48;;;;;;;;;;;7.70;90.20;;;;;;4998292;28;20042;-76
2023/03/02 10:12:20;;;;;;;26.05;13.98;;;7.80;90.00;;;;;;4998448;28;19905;-77
2023/03/02 10:15:16;;;;;;;28.20;15.57;;;7.90;89.20;;;;;;4997835;28;20037;-77
2023/03/02 10:18:09;;;;;;;28.25;14.68;;;8.00;88.20;;;;;;4983993;28;20119;-78
2023/03/02 10:21:20;;;;;;;25.83;13.73;;;8.00;87.90;;;;;;5018284;28;20056;-77
2023/03/02 10:24:09;;;;;;;26.33;14.13;;;8.10;85.00;;;;;;5002390;28;20111;-78
2023/03/02 10:26:37;;;;;;;25.55;14.60;;;8.20;86.20;;;;;;5017888;28;20021;-80
2023/03/02 10:29:09;;;;;;;23.38;13.27;;;8.30;84.70;;;;;;5035401;28;20032;-77
2023/03/02 10:31:39;;;;;;;21.02;12.52;;;8.50;84.50;;;;;;5035441;28;20466;-80
2023/03/02 10:34:09;;;;;;;22.45;12.73;;;8.70;82.60;;;;;;5035479;28;20022;-80
2023/03/02 10:36:40;;;;;;;26.33;13.98;;;9.00;81.90;;;;;;5017623;28;20116;-79
2023/03/02 10:39:11;;;;;;;26.70;14.60;;;9.30;80.80;;;;;;5017898;28;20022;-78
2023/03/02 10:41:42;;;;;;;23.98;13.93;;;9.30;80.00;;;;;;5017267;28;20025;-79
2023/03/02 10:44:23;;;;;;;26.27;14.35;;;9.20;79.70;;;;;;5017663;28;20033;-78
2023/03/02 10:46:52;;;;;;;22.38;12.95;;;9.20;79.50;;;;;;5017989;28;20090;-79
2023/03/02 10:49:27;;;;;;;25.85;13.45;;;9.30;79.00;;;;;;5017447;28;20417;-79
2023/03/02 10:52:08;;;;;;;24.27;13.45;;;9.30;78.20;;;;;;5014913;28;20159;-78
2023/03/02 10:54:35;;;;;;;20.05;12.07;;;9.50;76.50;;;;;;5034161;28;20033;-78
2023/03/02 10:57:04;;;;;;;24.33;13.10;;;9.50;74.90;;;;;;5001190;28;20029;-77
2023/03/02 10:59:42;;;;;;;22.42;11.80;;;9.40;75.00;;;;;;5034921;28;20164;-76
2023/03/02 11:02:22;;;;;;;20.15;11.55;;;9.30;74.20;;;;;;5017253;28;20116;-78
2023/03/02 11:05:19;;;;;;;20.20;11.40;;;9.40;75.50;;;;;;5017348;28;20056;-79
2023/03/02 11:07:57;;;;;;;23.77;13.30;;;9.60;76.10;;;;;;5035078;28;20366;-75
2023/03/02 11:10:27;;;;;;;22.85;12.68;;;10.00;76.20;;;;;;5034233;28;20034;-75
2023/03/02 11:12:53;;;;;;;21.65;13.07;;;10.00;75.90;;;;;;5033787;28;20081;-76
2023/03/02 11:15:26;;;;;;;23.60;12.70;;;10.00;75.70;;;;;;4997310;28;20030;-75
2023/03/02 11:18:23;;;;;;;20.70;12.07;;;10.10;76.90;;;;;;5015275;28;20026;-76
2023/03/02 11:20:53;;;;;;;20.70;12.02;;;10.00;76.20;;;;;;4996388;28;20080;-75
2023/03/02 11:23:44;;;;;;;19.80;12.02;;;10.20;76.10;;;;;;5020673;28;20418;-76
2023/03/02 11:26:22;;;;;;;16.52;10.40;;;10.20;76.60;;;;;;5013158;28;20051;-76
2023/03/02 11:28:58;;;;;;;20.02;11.02;;;10.30;75.30;;;;;;5032790;28;20085;-78
2023/03/02 11:32:15;;;;;;;21.05;11.63;;;10.40;75.10;;;;;;5034911;28;20037;-85
2023/03/02 11:35:03;;;;;;;18.58;11.35;;;10.50;75.60;;;;;;5017887;28;20052;-84
2023/03/02 11:37:45;;;;;;;19.10;11.07;;;10.60;75.00;;;;;;5038680;28;20030;-82
2023/03/02 11:40:30;;;;;;;20.52;12.05;;;10.70;75.60;;;;;;5018832;28;20029;-83
2023/03/02 11:42:58;;;;;;;18.85;11.38;;;10.70;74.70;;;;;;5042553;28;20052;-85
2023/03/02 11:45:42;;;;;;;17.45;10.23;;;10.80;74.40;;;;;;5039829;28;20029;-84
2023/03/02 11:48:24;;;;;;;19.33;11.50;;;10.90;75.10;;;;;;5021372;28;20040;-84
2023/03/02 11:50:57;;;;;;;18.38;11.57;;;10.90;73.40;;;;;;5024303;28;20049;-84
2023/03/02 11:53:30;;;;;;;19.95;11.88;;;10.90;73.30;;;;;;5028981;28;20034;-85
2023/03/02 11:55:56;;;;;;;16.42;10.70;;;11.10;75.10;;;;;;5024040;28;20343;-83
2023/03/02 11:58:25;;;;;;;16.50;10.80;;;11.20;73.50;;;;;;5025354;28;20026;-84
2023/03/02 12:00:52;;;;;;;18.25;11.13;;;11.10;73.40;;;;;;5047271;28;20029;-83
2023/03/02 12:03:40;;;;;;;15.75;10.38;;;11.20;73.90;;;;;;5016207;28;20044;-84
2023/03/02 12:06:26;;;;;;;16.83;9.05;;;11.30;73.20;;;;;;5017936;28;20022;-79
2023/03/02 12:09:06;;;;;;;14.90;9.63;;;11.30;75.00;;;;;;4999032;28;20026;-79
2023/03/02 12:11:37;;;;;;;14.73;9.15;;;11.60;73.80;;;;;;4996090;28;20060;-78
2023/03/02 12:14:35;;;;;;;14.68;10.30;;;11.60;71.10;;;;;;4996263;28;20022;-79
2023/03/02 12:17:18;;;;;;;16.48;9.52;;;11.70;71.90;;;;;;5031118;28;20036;-79
2023/03/02 12:19:45;;;;;;;14.15;8.95;;;11.80;72.30;;;;;;5033182;28;20449;-79
2023/03/02 12:22:13;;;;;;;16.08;9.20;;;11.90;72.80;;;;;;5015924;28;20037;-79
2023/03/02 12:24:42;;;;;;;14.23;8.65;;;12.10;71.40;;;;;;5015507;28;20038;-79
2023/03/02 12:27:14;;;;;;;11.65;7.20;;;12.30;69.70;;;;;;5014844;28;20056;-79
2023/03/02 12:29:46;;;;;;;14.95;8.55;;;12.50;70.90;;;;;;5032196;28;20029;-79
2023/03/02 12:32:18;;;;;;;14.32;9.73;;;12.60;69.40;;;;;;5031963;28;20049;-80
2023/03/02 12:34:50;;;;;;;14.82;8.57;;;12.70;68.20;;;;;;5031550;28;20033;-78
2023/03/02 12:37:31;;;;;;;13.75;8.73;;;12.80;67.60;;;;;;5014364;28;20030;-79
2023/03/02 12:40:33;;;;;;;12.75;8.43;;;12.80;65.20;;;;;;5031883;28;20029;-79
2023/03/02 12:43:20;;;;;;;12.25;7.40;;;12.90;65.60;;;;;;5032005;28;20022;-80
2023/03/02 12:46:14;;;;;;;16.92;9.98;;;13.00;66.10;;;;;;5014508;28;20112;-78
2023/03/02 12:48:50;;;;;;;16.40;10.20;;;12.90;66.50;;;;;;5013062;28;20022;-79
2023/03/02 12:51:18;;;;;;;17.33;11.38;;;12.70;68.60;;;;;;5029802;28;20041;-80